Time;durP1;ratioP1;P1;durP2;ratioP2;P2;SDS_P1;SDS_P2;PMS_P1;PMS_P2;Temp;Humidity;BMP_temperature;BMP_pressure;BME280_temperature;BME280_humidity;BME280_pressure;Samples;Min_cycle;Max_cycle;Signal;HPM_P1;HPM_P2
2022/09/10 00:01:58;;;;;;;35.50;25.00;;;;;;;16.26;74.74;98595.51;88274;1277;22592;-75
2022/09/10 00:04:01;;;;;;;35.90;25.40;;;;;;;16.25;74.80;98594.36;88290;1277;22652;-74
2022/09/10 00:06:04;;;;;;;36.60;25.00;;;;;;;16.24;74.83;98598.34;88314;1277;99932;-73
2022/09/10 00:08:07;;;;;;;37.90;25.70;;;;;;;16.23;74.85;98592.59;88142;1278;22811;-75
2022/09/10 00:10:10;;;;;;;36.70;25.10;;;;;;;16.21;74.83;98588.27;88352;1277;23483;-74
2022/09/10 00:12:12;;;;;;;33.80;26.20;;;;;;;16.20;74.96;98590.13;88257;1277;101061;-75
2022/09/10 00:14:18;;;;;;;37.60;24.80;;;;;;;16.21;74.93;98587.40;88279;1277;23168;-75
2022/09/10 00:16:20;;;;;;;30.70;24.70;;;;;;;16.22;74.99;98590.52;88342;1273;24141;-73
2022/09/10 00:18:22;;;;;;;40.00;27.20;;;;;;;16.23;75.12;98588.69;88136;1277;99096;-73
2022/09/10 00:20:24;;;;;;;41.40;26.80;;;;;;;16.23;75.15;98588.14;88168;1277;22589;-74
2022/09/10 00:22:26;;;;;;;39.90;26.70;;;;;;;16.22;75.10;98586.24;88207;1277;25301;-75
2022/09/10 00:24:28;;;;;;;40.60;27.30;;;;;;;16.22;75.32;98586.47;88354;1276;99572;-75
2022/09/10 00:26:34;;;;;;;41.50;28.20;;;;;;;16.22;75.22;98585.20;88347;1276;24384;-75
2022/09/10 00:28:36;;;;;;;44.80;28.90;;;;;;;16.21;75.27;98587.58;88389;1276;25493;-73
2022/09/10 00:30:46;;;;;;;49.40;30.80;;;;;;;16.22;75.23;98585.73;88123;1277;99844;-74
2022/09/10 00:32:51;;;;;;;43.90;29.70;;;;;;;16.21;75.26;98588.13;88275;1276;22660;-73
2022/09/10 00:34:54;;;;;;;40.40;29.80;;;;;;;16.18;75.32;98587.64;88193;1277;100352;-74
2022/09/10 00:36:56;;;;;;;41.20;29.50;;;;;;;16.15;75.43;98584.28;88305;1275;22560;-73
2022/09/10 00:39:01;;;;;;;44.00;30.70;;;;;;;16.15;75.54;98585.56;88352;1278;22794;-74
2022/09/10 00:41:07;;;;;;;44.80;29.60;;;;;;;16.12;75.56;98583.48;88227;1274;99573;-73
2022/09/10 00:43:19;;;;;;;36.80;29.00;;;;;;;16.09;75.55;98578.52;88220;1277;23205;-75
2022/09/10 00:45:28;;;;;;;41.50;30.00;;;;;;;16.10;75.65;98575.87;88314;1277;22565;-74
2022/09/10 00:47:38;;;;;;;46.20;31.40;;;;;;;16.09;75.64;98571.50;88136;1277;99416;-73
2022/09/10 00:49:44;;;;;;;46.60;31.70;;;;;;;16.07;75.73;98573.03;88212;1276;25473;-75
2022/09/10 00:51:50;;;;;;;53.00;33.70;;;;;;;16.05;75.75;98570.70;88454;1277;23394;-74
2022/09/10 00:53:53;;;;;;;54.90;32.30;;;;;;;16.04;75.85;98574.04;88213;1274;99549;-75
2022/09/10 00:56:01;;;;;;;53.80;32.90;;;;;;;16.03;75.89;98573.19;88363;1277;24205;-73
2022/09/10 00:58:09;;;;;;;52.40;32.30;;;;;;;16.03;75.84;98574.08;88785;1277;24316;-74
2022/09/10 01:00:12;;;;;;;44.30;31.50;;;;;;;16.02;75.77;98573.24;88367;1275;99358;-74
2022/09/10 01:02:14;;;;;;;45.70;32.80;;;;;;;16.01;75.81;98572.64;88287;1276;22559;-74
2022/09/10 01:04:16;;;;;;;44.10;31.60;;;;;;;15.98;75.83;98570.38;88250;1277;22585;-74
2022/09/10 01:06:18;;;;;;;46.80;34.50;;;;;;;15.96;76.02;98573.70;88168;1277;99860;-74
2022/09/10 01:08:20;;;;;;;44.30;32.40;;;;;;;15.95;76.03;98573.80;88262;1278;24216;-75
2022/09/10 01:10:27;;;;;;;53.40;34.00;;;;;;;15.92;75.98;98575.59;88354;1276;22601;-74
2022/09/10 01:12:32;;;;;;;47.70;31.70;;;;;;;15.91;75.96;98569.33;88747;1276;99342;-74
2022/09/10 01:15:16;;;;;;;49.30;33.40;;;;;;;15.90;76.17;98567.27;88267;1276;22655;-75
2022/09/10 01:17:46;;;;;;;45.90;32.10;;;;;;;15.90;76.06;98563.41;87807;1282;98755;-74
2022/09/10 01:20:18;;;;;;;47.30;34.10;;;;;;;15.89;76.21;98569.48;87884;1284;22827;-75
2022/09/10 01:22:39;;;;;;;53.40;34.80;;;;;;;15.87;76.34;98573.05;87864;1284;22763;-73
2022/09/10 01:24:59;;;;;;;57.80;37.40;;;;;;;15.84;76.41;98574.66;87809;1284;24240;-72
2022/09/10 01:27:05;;;;;;;54.20;34.30;;;;;;;15.85;76.45;98578.63;87628;1284;22922;-73
2022/09/10 01:29:15;;;;;;;53.70;34.80;;;;;;;15.83;76.44;98577.36;87752;1282;99312;-73
2022/09/10 01:31:32;;;;;;;;;;;;;;;15.81;76.49;98582.27;88175;1284;22615;-74
2022/09/10 01:34:19;;;;;;;51.10;35.10;;;;;;;15.78;76.61;98585.36;87852;1284;22659;-75
2022/09/10 01:36:29;;;;;;;56.20;37.50;;;;;;;15.78;76.56;98584.09;87464;1285;99325;-73
2022/09/10 01:38:34;;;;;;;57.50;36.00;;;;;;;15.77;76.65;98584.54;87208;1291;22591;-74
2022/09/10 01:40:37;;;;;;;56.30;35.70;;;;;;;15.76;76.73;98582.14;87681;1289;24881;-74
2022/09/10 01:42:40;;;;;;;54.80;35.10;;;;;;;15.75;76.65;98575.81;87242;1287;25434;-74
2022/09/10 01:44:48;;;;;;;55.30;35.70;;;;;;;15.76;76.73;98573.10;87518;1287;22687;-73
2022/09/10 01:47:07;;;;;;;63.40;35.40;;;;;;;15.75;76.85;98575.28;87348;1287;103464;-75
2022/09/10 01:49:59;;;;;;;52.60;35.00;;;;;;;15.75;76.87;98572.09;87391;1288;22601;-71
2022/09/10 01:52:21;;;;;;;48.10;34.50;;;;;;;15.75;76.83;98571.59;86817;1294;28347;-74
2022/09/10 01:54:44;;;;;;;55.10;36.10;;;;;;;15.76;76.83;98569.17;87051;1288;99580;-73
2022/09/10 01:57:07;;;;;;;51.90;34.70;;;;;;;15.78;76.97;98567.27;87594;1287;22789;-73
2022/09/10 01:59:21;;;;;;;53.60;33.60;;;;;;;15.78;76.93;98566.55;87570;1285;99920;-74
2022/09/10 02:01:42;;;;;;;50.60;33.60;;;;;;;15.76;76.94;98565.29;87710;1284;22581;-74
2022/09/10 02:03:47;;;;;;;53.50;34.60;;;;;;;15.75;76.97;98565.21;87640;1284;22900;-74
2022/09/10 02:05:52;;;;;;;46.80;32.50;;;;;;;15.74;77.00;98564.04;87383;1286;99285;-75
2022/09/10 02:08:00;;;;;;;45.70;34.00;;;;;;;15.73;76.98;98567.29;87628;1286;23058;-74
2022/09/10 02:10:05;;;;;;;52.60;31.60;;;;;;;15.73;76.96;98566.77;87601;1285;23098;-73
2022/09/10 02:12:07;;;;;;;44.00;30.80;;;;;;;15.70;77.07;98567.87;87515;1286;99851;-74
2022/09/10 02:14:09;;;;;;;45.80;32.10;;;;;;;15.67;77.05;98565.95;86516;1284;1567904;-74
2022/09/10 02:16:20;;;;;;;49.90;32.40;;;;;;;15.66;77.18;98561.42;87604;1285;22606;-75
2022/09/10 02:18:23;;;;;;;48.10;34.90;;;;;;;15.64;77.23;98562.25;87405;1285;100059;-73
2022/09/10 02:20:26;;;;;;;50.90;34.10;;;;;;;15.65;77.24;98560.09;88239;1284;22738;-76
2022/09/10 02:22:31;;;;;;;55.10;34.50;;;;;;;15.65;77.25;98560.10;87848;1282;22682;-73
2022/09/10 02:24:33;;;;;;;52.50;35.10;;;;;;;15.65;77.24;98553.39;87996;1284;100095;-74
2022/09/10 02:26:38;;;;;;;48.00;35.20;;;;;;;15.63;77.31;98551.02;87788;1278;22813;-74
2022/09/10 02:28:48;;;;;;;54.60;37.80;;;;;;;15.64;77.31;98548.97;88265;1277;99596;-74
2022/09/10 02:30:50;;;;;;;61.40;38.50;;;;;;;15.65;77.33;98544.11;88491;1276;22738;-74
2022/09/10 02:32:51;;;;;;;62.40;38.30;;;;;;;15.66;77.32;98539.31;88237;1276;22694;-72
2022/09/10 02:34:53;;;;;;;57.30;36.90;;;;;;;15.65;77.40;98535.63;88175;1276;99639;-73
2022/09/10 02:36:56;;;;;;;57.90;39.10;;;;;;;15.65;77.30;98536.19;88319;1276;22684;-73
2022/09/10 02:38:59;;;;;;;62.30;39.90;;;;;;;15.63;77.33;98539.71;88201;1276;25518;-74
2022/09/10 02:41:00;;;;;;;63.70;41.30;;;;;;;15.61;77.41;98538.63;88201;1278;100384;-73
2022/09/10 02:43:04;;;;;;;70.80;43.80;;;;;;;15.62;77.42;98542.61;88419;1274;26326;-74
2022/09/10 02:45:07;;;;;;;74.00;46.50;;;;;;;15.62;77.53;98543.84;88425;1273;22617;-73
2022/09/10 02:47:08;;;;;;;73.90;46.80;;;;;;;15.65;77.43;98533.13;88214;1275;99356;-74
2022/09/10 02:49:10;;;;;;;80.50;47.10;;;;;;;15.66;77.56;98527.23;88289;1276;22730;-74
2022/09/10 02:51:13;;;;;;;80.90;46.60;;;;;;;15.66;77.56;98521.77;88290;1274;25376;-73
2022/09/10 02:53:15;;;;;;;85.10;49.20;;;;;;;15.66;77.60;98521.42;88234;1274;99519;-74
2022/09/10 02:55:17;;;;;;;83.00;49.50;;;;;;;15.65;77.71;98518.98;88342;1276;23366;-73
2022/09/10 02:57:19;;;;;;;86.50;49.50;;;;;;;15.64;77.80;98518.00;88269;1274;22693;-75
2022/09/10 02:59:22;;;;;;;88.80;51.00;;;;;;;15.64;77.78;98513.73;88196;1276;100139;-76
2022/09/10 03:01:24;;;;;;;81.30;48.40;;;;;;;15.65;77.65;98511.92;88268;1276;22625;-74
2022/09/10 03:03:27;;;;;;;85.10;48.50;;;;;;;15.65;77.64;98508.17;88325;1276;25663;-74
2022/09/10 03:05:29;;;;;;;81.30;48.20;;;;;;;15.64;77.73;98511.65;88250;1277;99384;-73
2022/09/10 03:07:31;;;;;;;92.60;49.50;;;;;;;15.62;77.73;98519.38;88165;1276;22658;-74
2022/09/10 03:09:34;;;;;;;89.70;48.60;;;;;;;15.62;77.80;98523.84;88257;1277;22693;-75
2022/09/10 03:11:39;;;;;;;87.50;50.20;;;;;;;15.63;77.86;98532.08;88220;1274;99487;-72
2022/09/10 03:13:45;;;;;;;80.90;48.60;;;;;;;15.62;77.86;98528.96;88384;1274;22890;-74
2022/09/10 03:15:47;;;;;;;81.90;48.60;;;;;;;15.62;77.88;98529.86;88163;1277;22720;-73
2022/09/10 03:17:49;;;;;;;83.20;48.60;;;;;;;15.61;77.87;98531.34;88096;1276;98839;-73
2022/09/10 03:19:51;;;;;;;85.60;49.20;;;;;;;15.60;77.95;98531.98;88252;1274;22761;-74
2022/09/10 03:21:52;;;;;;;96.10;53.20;;;;;;;15.58;77.85;98530.88;88213;1276;22783;-74
2022/09/10 03:23:54;;;;;;;89.80;51.50;;;;;;;15.57;78.11;98530.74;88158;1276;99977;-74
2022/09/10 03:25:56;;;;;;;86.90;49.70;;;;;;;15.57;77.95;98527.25;88260;1275;22567;-72
2022/09/10 03:27:58;;;;;;;94.40;52.10;;;;;;;15.56;78.10;98527.64;88110;1277;23883;-74
2022/09/10 03:30:02;;;;;;;93.70;50.80;;;;;;;15.55;78.04;98523.65;88118;1277;99696;-73
2022/09/10 03:32:04;;;;;;;88.80;50.10;;;;;;;15.56;78.12;98523.79;88269;1276;25338;-74
2022/09/10 03:34:05;;;;;;;91.20;49.80;;;;;;;15.55;78.05;98527.59;88239;1276;23419;-73
2022/09/10 03:36:08;;;;;;;83.50;50.60;;;;;;;15.55;78.25;98524.19;88198;1275;99464;-73
2022/09/10 03:38:10;;;;;;;93.50;50.60;;;;;;;15.56;78.19;98524.65;88232;1274;22635;-71
2022/09/10 03:40:11;;;;;;;88.20;48.10;;;;;;;15.57;78.25;98524.44;88327;1274;22554;-73
2022/09/10 03:42:15;;;;;;;95.10;51.80;;;;;;;15.58;78.31;98526.84;88206;1276;99467;-74
2022/09/10 03:44:16;;;;;;;97.90;52.00;;;;;;;15.59;78.33;98521.95;88321;1276;25422;-74
2022/09/10 03:46:18;;;;;;;98.60;51.00;;;;;;;15.60;78.29;98519.17;88250;1276;22640;-73
2022/09/10 03:48:21;;;;;;;98.00;54.60;;;;;;;15.60;78.48;98512.27;88134;1274;98474;-73
2022/09/10 03:50:23;;;;;;;93.90;51.80;;;;;;;15.62;78.36;98512.35;88346;1273;23531;-72
2022/09/10 03:52:25;;;;;;;98.40;51.30;;;;;;;15.61;78.33;98513.15;88257;1276;22655;-73
2022/09/10 03:54:26;;;;;;;95.40;53.50;;;;;;;15.58;78.36;98516.54;88238;1274;99944;-74
2022/09/10 03:56:28;;;;;;;95.90;51.40;;;;;;;15.57;78.47;98519.66;88120;1276;22676;-73
2022/09/10 03:58:31;;;;;;;123.50;55.60;;;;;;;15.55;78.52;98519.39;88214;1276;22793;-74
2022/09/10 04:00:33;;;;;;;110.30;54.60;;;;;;;15.55;78.66;98518.69;88238;1275;99785;-73
2022/09/10 04:02:35;;;;;;;206.20;56.20;;;;;;;15.54;78.55;98516.99;88237;1276;23444;-74
2022/09/10 04:04:37;;;;;;;160.80;57.70;;;;;;;15.52;78.67;98512.23;88353;1273;22569;-72
2022/09/10 04:06:39;;;;;;;168.00;58.20;;;;;;;15.47;79.05;98512.92;88269;1273;99425;-72
2022/09/10 04:08:44;;;;;;;135.10;55.40;;;;;;;15.42;79.20;98512.05;88343;1274;24874;-72
2022/09/10 04:10:47;;;;;;;116.40;54.20;;;;;;;15.40;79.35;98508.69;88301;1273;99849;-72
2022/09/10 04:12:48;;;;;;;90.40;48.80;;;;;;;15.36;79.53;98510.55;88665;1275;22800;-73
2022/09/10 04:14:50;;;;;;;86.20;47.40;;;;;;;15.31;79.40;98510.77;88415;1273;22630;-73
2022/09/10 04:16:51;;;;;;;100.00;51.10;;;;;;;15.25;79.33;98511.42;88225;1273;99547;-73
2022/09/10 04:18:53;;;;;;;91.30;49.60;;;;;;;15.19;79.33;98509.23;88371;1276;24245;-72
2022/09/10 04:20:55;;;;;;;133.20;51.80;;;;;;;15.14;79.46;98504.19;88343;1274;26659;-73
2022/09/10 04:22:57;;;;;;;117.20;53.30;;;;;;;15.14;79.71;98501.05;88233;1274;99803;-71
2022/09/10 04:24:59;;;;;;;143.50;52.00;;;;;;;15.14;79.72;98502.27;88182;1276;22570;-71
2022/09/10 04:27:01;;;;;;;107.80;49.90;;;;;;;15.15;79.69;98502.36;88273;1276;23588;-71
2022/09/10 04:29:03;;;;;;;116.20;48.80;;;;;;;15.15;79.84;98504.88;88272;1273;99555;-72
2022/09/10 04:31:05;;;;;;;107.50;50.20;;;;;;;15.12;79.65;98505.62;88348;1273;22573;-70
2022/09/10 04:33:07;;;;;;;95.30;51.40;;;;;;;15.11;79.85;98505.85;88286;1274;23674;-71
2022/09/10 04:35:09;;;;;;;107.60;51.30;;;;;;;15.09;79.83;98500.69;88125;1276;99744;-72
2022/09/10 04:37:11;;;;;;;96.70;47.90;;;;;;;15.11;79.83;98504.09;88290;1276;22579;-72
2022/09/10 04:39:13;;;;;;;92.10;48.00;;;;;;;15.10;79.88;98504.51;88305;1274;23071;-73
2022/09/10 04:41:17;;;;;;;82.40;46.40;;;;;;;15.10;79.84;98506.48;88224;1274;99534;-72
2022/09/10 04:43:18;;;;;;;91.00;46.90;;;;;;;15.09;79.93;98502.85;88394;1273;25332;-71
2022/09/10 04:45:20;;;;;;;91.40;46.00;;;;;;;15.10;80.16;98503.63;88255;1276;22556;-72
2022/09/10 04:47:22;;;;;;;111.60;47.90;;;;;;;15.12;80.22;98502.23;88380;1274;100106;-71
2022/09/10 04:49:24;;;;;;;119.40;44.30;;;;;;;15.14;80.19;98497.29;88333;1274;24225;-71
2022/09/10 04:51:25;;;;;;;106.80;45.70;;;;;;;15.14;80.02;98494.13;88208;1274;22674;-72
2022/09/10 04:53:27;;;;;;;83.00;44.00;;;;;;;15.13;80.29;98488.17;88270;1273;99408;-73
2022/09/10 04:55:31;;;;;;;84.50;41.90;;;;;;;15.13;80.32;98485.88;88236;1273;23559;-73
2022/09/10 04:57:32;;;;;;;80.70;40.50;;;;;;;15.10;80.14;98485.41;88440;1273;22560;-72
2022/09/10 04:59:34;;;;;;;91.70;42.80;;;;;;;15.12;80.22;98487.05;88267;1274;99947;-72
2022/09/10 05:01:36;;;;;;;74.90;39.30;;;;;;;15.12;80.31;98487.09;88315;1275;24348;-74
2022/09/10 05:03:38;;;;;;;62.30;38.30;;;;;;;15.12;80.35;98485.65;88214;1276;22879;-74
2022/09/10 05:05:46;;;;;;;64.60;37.20;;;;;;;15.11;80.37;98486.59;88187;1274;100368;-74
2022/09/10 05:07:49;;;;;;;57.60;34.90;;;;;;;15.11;80.36;98482.36;88430;1273;24206;-73
2022/09/10 05:09:50;;;;;;;60.80;36.10;;;;;;;15.10;80.49;98480.86;88316;1274;22899;-73
2022/09/10 05:11:52;;;;;;;64.40;34.80;;;;;;;15.09;80.48;98482.83;88172;1276;100354;-72
2022/09/10 05:13:54;;;;;;;74.90;37.60;;;;;;;15.09;80.48;98476.94;88324;1274;24346;-73
2022/09/10 05:15:57;;;;;;;71.00;34.50;;;;;;;15.12;80.63;98481.73;88057;1279;24276;-73
2022/09/10 05:17:59;;;;;;;64.80;35.70;;;;;;;15.14;80.60;98482.79;88188;1279;99524;-72
2022/09/10 05:20:05;;;;;;;61.20;33.70;;;;;;;15.16;80.52;98485.88;88126;1278;26760;-73
2022/09/10 05:22:08;;;;;;;56.80;34.40;;;;;;;15.16;80.70;98486.92;88299;1277;23086;-74
2022/09/10 05:24:10;;;;;;;55.00;31.40;;;;;;;15.15;80.49;98485.02;88791;1274;101086;-72
2022/09/10 05:26:12;;;;;;;52.50;32.70;;;;;;;15.14;80.40;98481.94;88313;1275;22638;-74
2022/09/10 05:28:15;;;;;;;50.40;32.60;;;;;;;15.15;80.57;98484.19;88211;1279;26561;-72
2022/09/10 05:30:17;;;;;;;61.60;33.50;;;;;;;15.14;80.66;98485.48;88189;1276;99501;-73
2022/09/10 05:32:19;;;;;;;65.10;36.20;;;;;;;15.15;80.80;98481.34;88289;1276;22872;-73
2022/09/10 05:34:20;;;;;;;59.30;34.70;;;;;;;15.18;80.74;98483.76;88326;1273;25539;-73
2022/09/10 05:36:23;;;;;;;58.10;35.30;;;;;;;15.21;80.76;98486.23;88209;1274;101544;-73
2022/09/10 05:38:25;;;;;;;58.90;33.70;;;;;;;15.22;80.81;98489.50;88182;1278;25225;-73
2022/09/10 05:40:28;;;;;;;64.00;34.70;;;;;;;15.24;80.74;98485.64;88347;1274;25459;-72
2022/09/10 05:42:29;;;;;;;69.60;36.50;;;;;;;15.25;80.88;98485.23;88283;1276;100491;-74
2022/09/10 05:44:32;;;;;;;61.50;35.80;;;;;;;15.25;80.84;98483.60;88262;1276;25505;-73
2022/09/10 05:46:33;;;;;;;61.90;37.40;;;;;;;15.26;80.74;98479.62;88430;1276;25096;-74
2022/09/10 05:48:36;;;;;;;53.90;35.30;;;;;;;15.28;80.77;98478.80;88224;1276;100334;-72
2022/09/10 05:50:37;;;;;;;54.20;33.70;;;;;;;15.28;80.91;98480.88;88241;1278;22565;-73
2022/09/10 05:52:39;;;;;;;48.40;32.30;;;;;;;15.29;80.86;98481.16;88201;1276;99650;-74
2022/09/10 05:54:41;;;;;;;63.20;33.80;;;;;;;15.28;80.98;98477.66;88300;1274;22741;-73
2022/09/10 05:56:43;;;;;;;52.90;33.60;;;;;;;15.29;80.88;98478.86;88345;1273;22660;-73
2022/09/10 05:58:44;;;;;;;60.10;32.90;;;;;;;15.31;80.92;98476.25;88178;1276;99744;-73
2022/09/10 06:00:50;;;;;;;66.80;34.30;;;;;;;15.34;80.98;98475.16;88272;1276;27890;-73
2022/09/10 06:02:52;;;;;;;51.30;32.00;;;;;;;15.37;81.07;98471.40;88189;1277;25696;-70
2022/09/10 06:04:53;;;;;;;55.10;31.40;;;;;;;15.37;81.08;98471.39;88080;1277;99811;-73
2022/09/10 06:06:55;;;;;;;54.80;30.80;;;;;;;15.38;80.98;98475.36;88296;1278;22658;-73
2022/09/10 06:08:57;;;;;;;52.50;31.00;;;;;;;15.38;81.00;98474.10;88209;1276;25880;-73
2022/09/10 06:11:03;;;;;;;51.80;31.40;;;;;;;15.40;81.11;98472.40;88106;1278;99892;-73
2022/09/10 06:13:05;;;;;;;49.60;31.80;;;;;;;15.41;81.01;98471.77;88358;1276;22617;-72
2022/09/10 06:15:09;;;;;;;48.80;30.60;;;;;;;15.41;81.03;98467.70;88306;1274;22591;-73
2022/09/10 06:17:12;;;;;;;50.90;31.20;;;;;;;15.41;81.11;98465.96;88266;1274;100211;-72
2022/09/10 06:19:14;;;;;;;49.80;30.30;;;;;;;15.40;81.10;98466.88;88327;1274;22710;-72
2022/09/10 06:21:17;;;;;;;44.90;29.00;;;;;;;15.41;81.10;98465.77;88200;1276;22636;-73
2022/09/10 06:23:19;;;;;;;47.70;29.30;;;;;;;15.41;81.18;98466.30;88576;1276;99359;-73
2022/09/10 06:25:21;;;;;;;50.00;30.00;;;;;;;15.41;80.98;98466.45;88205;1276;22748;-74
2022/09/10 06:27:22;;;;;;;46.00;29.70;;;;;;;15.42;81.27;98465.45;88150;1277;22804;-72
2022/09/10 06:29:24;;;;;;;42.70;29.20;;;;;;;15.43;81.15;98465.92;88193;1276;100131;-72
2022/09/10 06:31:26;;;;;;;46.60;29.50;;;;;;;15.43;81.09;98463.98;88435;1274;25383;-73
2022/09/10 06:33:28;;;;;;;49.50;29.50;;;;;;;15.43;81.11;98463.43;88546;1273;22576;-72
2022/09/10 06:35:31;;;;;;;45.80;30.40;;;;;;;15.44;81.27;98461.59;88204;1274;99599;-72
2022/09/10 06:37:33;;;;;;;42.80;27.90;;;;;;;15.45;81.19;98464.75;88331;1274;22582;-73
2022/09/10 06:39:35;;;;;;;45.30;28.70;;;;;;;15.46;81.25;98471.34;88242;1275;22734;-73
2022/09/10 06:41:36;;;;;;;39.40;26.30;;;;;;;15.47;81.29;98473.23;88059;1276;99461;-74
2022/09/10 06:43:40;;;;;;;50.20;30.60;;;;;;;15.48;81.35;98477.58;88048;1279;22581;-72
2022/09/10 06:45:42;;;;;;;43.00;27.80;;;;;;;15.52;81.33;98479.10;88304;1273;24977;-74
2022/09/10 06:47:43;;;;;;;42.10;28.40;;;;;;;15.54;81.29;98480.00;88110;1276;99327;-71
2022/09/10 06:49:45;;;;;;;43.40;26.40;;;;;;;15.57;81.35;98479.40;88503;1275;25346;-73
2022/09/10 06:51:48;;;;;;;42.30;27.50;;;;;;;15.57;81.48;98481.54;88383;1278;22635;-72
2022/09/10 06:53:52;;;;;;;40.00;26.50;;;;;;;15.57;81.34;98483.30;88645;1275;101052;-73
2022/09/10 06:55:59;;;;;;;37.70;24.70;;;;;;;15.59;81.30;98485.31;88699;1274;24215;-72
2022/09/10 06:58:05;;;;;;;34.60;24.10;;;;;;;15.59;81.27;98489.58;88622;1274;22568;-71
2022/09/10 07:00:08;;;;;;;36.60;23.50;;;;;;;15.56;81.24;98489.80;88484;1273;100116;-74
2022/09/10 07:02:10;;;;;;;38.90;25.10;;;;;;;15.54;81.31;98486.91;88398;1274;22640;-72
2022/09/10 07:04:14;;;;;;;38.50;26.00;;;;;;;15.55;81.29;98488.39;88362;1276;24249;-71
2022/09/10 07:06:16;;;;;;;39.50;25.60;;;;;;;15.58;81.39;98487.13;88368;1276;99422;-72
2022/09/10 07:08:21;;;;;;;41.10;25.30;;;;;;;15.62;81.58;98487.21;88391;1276;24391;-73
2022/09/10 07:10:24;;;;;;;46.60;28.10;;;;;;;15.64;81.52;98487.04;88540;1276;23885;-72
2022/09/10 07:12:26;;;;;;;49.90;26.70;;;;;;;15.65;81.40;98489.25;88352;1276;98415;-74
2022/09/10 07:14:28;;;;;;;50.30;28.00;;;;;;;15.65;81.34;98490.11;88379;1276;22753;-73
2022/09/10 07:16:30;;;;;;;43.50;27.60;;;;;;;15.65;81.38;98490.45;88473;1276;22673;-72
2022/09/10 07:18:32;;;;;;;52.50;27.80;;;;;;;15.66;81.39;98489.01;88316;1276;100050;-72
2022/09/10 07:20:34;;;;;;;39.80;24.40;;;;;;;15.67;81.47;98484.14;88566;1278;25308;-73
2022/09/10 07:22:36;;;;;;;43.10;25.60;;;;;;;15.64;81.44;98482.77;88420;1276;25476;-74
2022/09/10 07:24:38;;;;;;;53.70;26.10;;;;;;;15.62;81.38;98482.94;88238;1276;99113;-74
2022/09/10 07:26:40;;;;;;;40.70;24.00;;;;;;;15.63;81.44;98485.00;88535;1276;22562;-73
2022/09/10 07:28:46;;;;;;;45.10;24.70;;;;;;;15.64;81.43;98487.16;88429;1275;99974;-75
2022/09/10 07:30:48;;;;;;;42.70;23.90;;;;;;;15.65;81.42;98486.95;89035;1273;22773;-73
2022/09/10 07:32:53;;;;;;;41.10;25.50;;;;;;;15.65;81.35;98484.46;88465;1276;22834;-71
2022/09/10 07:34:56;;;;;;;34.60;22.80;;;;;;;15.65;81.40;98492.95;88181;1274;99911;-72
2022/09/10 07:36:58;;;;;;;33.10;21.20;;;;;;;15.62;81.39;98491.58;88311;1275;22496;-73
2022/09/10 07:39:00;;;;;;;36.90;22.10;;;;;;;15.60;81.35;98491.23;88270;1276;22665;-73
2022/09/10 07:41:02;;;;;;;34.40;20.50;;;;;;;15.57;81.40;98490.02;88196;1276;99353;-73
2022/09/10 07:43:05;;;;;;;27.40;19.10;;;;;;;15.56;81.45;98490.47;88181;1276;26570;-73
2022/09/10 07:45:14;;;;;;;38.70;19.10;;;;;;;15.56;81.39;98491.16;88223;1276;22589;-72
2022/09/10 07:47:17;;;;;;;30.80;19.10;;;;;;;15.56;81.38;98489.06;88376;1274;101036;-73
2022/09/10 07:49:19;;;;;;;29.30;19.80;;;;;;;15.58;81.37;98490.12;88320;1274;22743;-73
2022/09/10 07:51:22;;;;;;;37.40;24.50;;;;;;;15.61;81.48;98489.05;88261;1276;23640;-74
2022/09/10 07:53:24;;;;;;;41.80;25.70;;;;;;;15.64;81.57;98490.23;88234;1273;99567;-73
2022/09/10 07:55:25;;;;;;;42.40;25.10;;;;;;;15.68;81.55;98490.29;88222;1276;22915;-71
2022/09/10 07:57:30;;;;;;;46.10;27.00;;;;;;;15.69;81.58;98487.70;88426;1273;22629;-73
2022/09/10 07:59:31;;;;;;;35.70;22.70;;;;;;;15.71;81.62;98487.42;88240;1276;99303;-74
2022/09/10 08:01:33;;;;;;;40.20;26.00;;;;;;;15.69;81.46;98487.17;88374;1274;22739;-74
2022/09/10 08:03:35;;;;;;;29.40;21.90;;;;;;;15.70;81.64;98493.48;88286;1276;22793;-72
2022/09/10 08:05:38;;;;;;;35.70;21.20;;;;;;;15.69;81.52;98489.64;88114;1276;99472;-72
2022/09/10 08:07:40;;;;;;;36.00;20.90;;;;;;;15.70;81.58;98493.64;88422;1274;22636;-74
2022/09/10 08:09:42;;;;;;;39.00;23.50;;;;;;;15.70;81.55;98492.59;88300;1276;24365;-72
2022/09/10 08:11:44;;;;;;;37.60;23.00;;;;;;;15.71;81.56;98499.59;88344;1274;99483;-76
2022/09/10 08:13:49;;;;;;;40.00;22.90;;;;;;;15.72;81.64;98500.36;88227;1276;22930;-74
2022/09/10 08:15:52;;;;;;;33.50;21.40;;;;;;;15.73;81.67;98496.96;88870;1276;24222;-74
2022/09/10 08:17:54;;;;;;;30.70;18.00;;;;;;;15.74;81.66;98495.10;88248;1274;100124;-74
2022/09/10 08:19:57;;;;;;;30.00;19.70;;;;;;;15.76;81.79;98499.60;88689;1273;22584;-74
2022/09/10 08:21:59;;;;;;;30.50;21.00;;;;;;;15.76;81.71;98496.53;89055;1274;22680;-73
2022/09/10 08:24:01;;;;;;;32.10;20.00;;;;;;;15.79;81.74;98496.72;88084;1276;99723;-73
2022/09/10 08:26:05;;;;;;;35.50;19.10;;;;;;;15.80;81.71;98496.96;88495;1276;25436;-74
2022/09/10 08:28:07;;;;;;;40.10;20.80;;;;;;;15.82;81.80;98495.03;88996;1273;24185;-73
2022/09/10 08:30:09;;;;;;;33.30;20.60;;;;;;;15.86;81.91;98494.61;88363;1274;98490;-73
2022/09/10 08:32:14;;;;;;;40.10;22.30;;;;;;;15.89;81.89;98494.19;88468;1274;22502;-72
2022/09/10 08:34:16;;;;;;;19.40;16.00;;;;;;;15.92;82.00;98493.24;88238;1276;23154;-74
2022/09/10 08:36:20;;;;;;;25.40;17.20;;;;;;;15.94;81.94;98492.02;88371;1273;99414;-72
2022/09/10 08:38:24;;;;;;;32.60;16.60;;;;;;;15.96;81.99;98490.98;89331;1273;23171;-73
2022/09/10 08:40:26;;;;;;;22.40;15.30;;;;;;;15.98;82.01;98491.00;88629;1276;22623;-71
2022/09/10 08:42:57;;;;;;;24.80;15.20;;;;;;;15.99;81.96;98494.29;88540;1274;99340;-72
2022/09/10 08:45:22;;;;;;;23.80;16.60;;;;;;;16.01;82.06;98494.64;88558;1273;22736;-71
2022/09/10 08:47:45;;;;;;;19.60;14.40;;;;;;;16.05;81.97;98496.13;88377;1274;99798;-73
2022/09/10 08:49:56;;;;;;;32.20;16.00;;;;;;;16.05;82.04;98492.71;88523;1274;22922;-73
2022/09/10 08:52:12;;;;;;;22.10;12.50;;;;;;;16.09;82.06;98490.86;88699;1276;22556;-71
2022/09/10 08:54:18;;;;;;;22.40;11.00;;;;;;;16.10;82.08;98493.20;88334;1275;99121;-71
2022/09/10 08:56:22;;;;;;;6.60;6.00;;;;;;;16.15;82.08;98497.60;88443;1275;22730;-72
2022/09/10 08:58:38;;;;;;;6.20;5.70;;;;;;;16.16;81.97;98496.52;88372;1276;24336;-73
2022/09/10 09:00:45;;;;;;;7.10;5.10;;;;;;;16.15;81.97;98493.39;88282;1276;23312;-74
2022/09/10 09:03:01;;;;;;;4.20;3.70;;;;;;;16.15;81.99;98495.46;88404;1273;23081;-75
2022/09/10 09:05:16;;;;;;;14.30;4.50;;;;;;;16.16;81.98;98492.40;88318;1274;97881;-72
2022/09/10 09:07:20;;;;;;;4.90;4.50;;;;;;;16.18;82.16;98492.06;88500;1273;22643;-71
2022/09/10 09:09:22;;;;;;;19.70;5.50;;;;;;;16.23;82.12;98491.03;88709;1276;22551;-73
2022/09/10 09:11:45;;;;;;;21.70;5.20;;;;;;;16.26;82.14;98492.35;88285;1275;99653;-74
2022/09/10 09:14:13;;;;;;;12.90;4.20;;;;;;;16.28;82.20;98491.80;88469;1274;22557;-73
2022/09/10 09:16:26;;;;;;;22.00;5.40;;;;;;;16.28;82.15;98494.30;88483;1275;23021;-71
2022/09/10 09:18:57;;;;;;;13.80;4.40;;;;;;;16.28;82.27;98496.41;88332;1274;99357;-73
2022/09/10 09:21:15;;;;;;;11.90;4.20;;;;;;;16.29;82.18;98495.83;88521;1273;23287;-73
2022/09/10 09:23:24;;;;;;;6.40;3.60;;;;;;;16.26;82.16;98493.59;88384;1273;98161;-72
2022/09/10 09:25:34;;;;;;;4.60;4.20;;;;;;;16.24;82.15;98494.62;88512;1274;22568;-72
2022/09/10 09:27:40;;;;;;;4.20;3.90;;;;;;;16.26;82.29;98489.55;88329;1276;25376;-72
2022/09/10 09:30:01;;;;;;;21.70;4.20;;;;;;;16.26;82.23;98489.10;88248;1276;99126;-73
2022/09/10 09:32:05;;;;;;;10.40;3.70;;;;;;;16.26;82.26;98487.95;88407;1276;24242;-73
2022/09/10 09:34:41;;;;;;;12.30;4.30;;;;;;;16.25;82.23;98488.39;88527;1274;22747;-71
2022/09/10 09:36:47;;;;;;;11.70;3.90;;;;;;;16.25;82.20;98494.89;87894;1284;22591;-73